Star Markella — V7KL3 — position and weather

sailwx.info

Track history (hours):
 
Tides and Currents Weather Stations Pressure Air Temp Water Temp Dewpoint Dewpoint Depression Visibility Wind Speed Wind Dir Waves Ship Positions

Star Markella

Last reported at 2014-Oct-26 04:33 UTC. Time now 2014-Oct-26 05:58 UTC.
Position N 47°17' W 122°26'.

Length 229 m; draft 7.5 m.

Type: Cargo ship. MMSI: 538002640.

Date/timePositionNaut miles runAvg speedWind from/ knotsBaromVisibWave heightAir tempDewpointWater temp
2014-Oct-26 04:33N 47°17' W 122°26'0 0.0
2014-Oct-26 03:33N 47°17' W 122°26'0 0.1
2014-Oct-26 02:33N 47°17' W 122°26'0 0.1
2014-Oct-26 01:33N 47°17' W 122°26'0 0.0
2014-Oct-26 00:30N 47°17' W 122°26'0 0.0
2014-Oct-25 23:33N 47°17' W 122°26'0 0.1
2014-Oct-25 22:27N 47°17' W 122°26'0 0.2
2014-Oct-25 21:33N 47°17' W 122°26'0 0.1
2014-Oct-25 20:33N 47°17' W 122°26'0 0.1
2014-Oct-25 19:33N 47°17' W 122°26'0 0.1
2014-Oct-25 18:33N 47°17' W 122°26'0 0.1
2014-Oct-25 17:33N 47°17' W 122°26'0 0.0
2014-Oct-25 16:33N 47°17' W 122°26'0 0.0
2014-Oct-25 15:33N 47°17' W 122°26'0 0.2
2014-Oct-25 14:33N 47°17' W 122°26'0 0.3
2014-Oct-25 13:33N 47°17' W 122°26'0 0.1
2014-Oct-25 12:33N 47°17' W 122°26'0 0.2
2014-Oct-25 11:33N 47°17' W 122°26'0 0.0
2014-Oct-25 10:33N 47°17' W 122°26'0 0.1
2014-Oct-25 09:33N 47°17' W 122°26'0 0.0
2014-Oct-25 08:33N 47°17' W 122°26'0 0.1
2014-Oct-25 07:30N 47°17' W 122°26'0 0.1
2014-Oct-25 06:33N 47°17' W 122°26'0 0.0
2014-Oct-25 05:33N 47°17' W 122°26'0 0.2
2014-Oct-25 04:30N 47°17' W 122°26'0 0.1
2014-Oct-25 03:30N 47°17' W 122°26'0 0.1
2014-Oct-25 02:33N 47°17' W 122°26'0 0.1
2014-Oct-25 01:33N 47°17' W 122°26'0 0.0
2014-Oct-25 00:27N 47°17' W 122°26'0 0.1
2014-Oct-24 23:30N 47°17' W 122°26'0 0.1
2014-Oct-24 22:33N 47°17' W 122°26'0 0.1
2014-Oct-24 21:33N 47°17' W 122°26'0 0.0
2014-Oct-24 20:33N 47°17' W 122°26'0 0.1
2014-Oct-24 19:33N 47°17' W 122°26'0 0.0
2014-Oct-24 18:33N 47°17' W 122°26'0 0.0
2014-Oct-24 17:33N 47°17' W 122°26'0 0.0
2014-Oct-24 16:33N 47°17' W 122°26'0 0.0
2014-Oct-24 15:30N 47°17' W 122°26'0 0.0
2014-Oct-24 14:33N 47°17' W 122°26'0 0.0
2014-Oct-24 13:33N 47°17' W 122°26'0 0.1
2014-Oct-24 12:33N 47°17' W 122°26'0 0.1
2014-Oct-24 11:33N 47°17' W 122°26'0 0.1
2014-Oct-24 10:33N 47°17' W 122°26'0 0.0
2014-Oct-24 09:33N 47°17' W 122°26'0 0.2
2014-Oct-24 08:33N 47°17' W 122°26'0 0.1
2014-Oct-24 07:33N 47°17' W 122°26'0 0.1
2014-Oct-24 06:33N 47°17' W 122°26'0 0.0
2014-Oct-24 05:33N 47°17' W 122°26'0 0.1
2014-Oct-24 04:30N 47°17' W 122°26'0 0.0
2014-Oct-24 03:33N 47°17' W 122°26'0 0.1
2014-Oct-24 02:33N 47°17' W 122°26'0 0.1
2014-Oct-24 01:33N 47°17' W 122°26'0 0.1
2014-Oct-24 00:27N 47°17' W 122°26'0 0.1
2014-Oct-23 23:33N 47°17' W 122°26'0 0.0
2014-Oct-23 22:24N 47°17' W 122°26'0 0.0
2014-Oct-23 21:33N 47°17' W 122°26'0 0.1
2014-Oct-23 20:33N 47°17' W 122°26'6 5.9
2014-Oct-23 19:33N 47°22' W 122°23'1212.4
2014-Oct-23 18:33N 47°34' W 122°27'1212.1
2014-Oct-23 17:33N 47°47' W 122°27'1111.3
2014-Oct-23 16:33N 47°57' W 122°34'1110.5
2014-Oct-23 15:28N 48°07' W 122°41'1010.9
2014-Oct-23 14:33N 48°11' W 122°55'1413.5
2014-Oct-23 13:32N 48°11' W 123°15'7 7.5
2014-Oct-23 12:33N 48°11' W 123°26'8 8.2
2014-Oct-23 11:33N 48°13' W 123°38'9 9.0
2014-Oct-23 10:33N 48°13' W 123°52'7 7.3
2014-Oct-23 09:33N 48°16' W 124°02'7 7.3
2014-Oct-23 08:33N 48°19' W 124°12'7 7.5
2014-Oct-23 07:33N 48°22' W 124°22'8 7.7
2014-Oct-23 06:33N 48°25' W 124°33'9 8.6
2014-Oct-23 05:33N 48°29' W 124°45'1110.8
2014-Oct-23 04:33N 48°29' W 125°01'10 9.8
2014-Oct-23 03:33N 48°29' W 125°16'6 6.4
2014-Oct-23 02:33N 48°30' W 125°25'9 9.3
2014-Oct-23 01:33N 48°33' W 125°38'9 9.3
2014-Oct-23 00:33N 48°37' W 125°51'9 9.1
2014-Oct-22 23:34N 48°40' W 126°04'9 9.0
2014-Oct-22 22:33N 48°44' W 126°17'8 8.3
2014-Oct-22 21:33N 48°47' W 126°28'8 8.2
2014-Oct-22 20:33N 48°50' W 126°40'  
Track history (hours):
 
Tides and Currents Weather Stations Pressure Air Temp Water Temp Dewpoint Dewpoint Depression Visibility Wind Speed Wind Dir Waves Ship Positions

Star Markella

Last reported at 2014-Oct-26 04:33 UTC. Time now 2014-Oct-26 05:58 UTC.
Position N 47°17' W 122°26'.

Length 229 m; draft 7.5 m.

Type: Cargo ship. MMSI: 538002640.

Date/timePositionNaut miles runAvg speedWind from/ knotsBaromVisibWave heightAir tempDewpointWater temp
2014-Oct-26 04:33N 47°17' W 122°26'0 0.0
2014-Oct-26 03:33N 47°17' W 122°26'0 0.1
2014-Oct-26 02:33N 47°17' W 122°26'0 0.1
2014-Oct-26 01:33N 47°17' W 122°26'0 0.0
2014-Oct-26 00:30N 47°17' W 122°26'0 0.0
2014-Oct-25 23:33N 47°17' W 122°26'0 0.1
2014-Oct-25 22:27N 47°17' W 122°26'0 0.2
2014-Oct-25 21:33N 47°17' W 122°26'0 0.1
2014-Oct-25 20:33N 47°17' W 122°26'0 0.1
2014-Oct-25 19:33N 47°17' W 122°26'0 0.1
2014-Oct-25 18:33N 47°17' W 122°26'0 0.1
2014-Oct-25 17:33N 47°17' W 122°26'0 0.0
2014-Oct-25 16:33N 47°17' W 122°26'0 0.0
2014-Oct-25 15:33N 47°17' W 122°26'0 0.2
2014-Oct-25 14:33N 47°17' W 122°26'0 0.3
2014-Oct-25 13:33N 47°17' W 122°26'0 0.1
2014-Oct-25 12:33N 47°17' W 122°26'0 0.2
2014-Oct-25 11:33N 47°17' W 122°26'0 0.0
2014-Oct-25 10:33N 47°17' W 122°26'0 0.1
2014-Oct-25 09:33N 47°17' W 122°26'0 0.0
2014-Oct-25 08:33N 47°17' W 122°26'0 0.1
2014-Oct-25 07:30N 47°17' W 122°26'0 0.1
2014-Oct-25 06:33N 47°17' W 122°26'0 0.0
2014-Oct-25 05:33N 47°17' W 122°26'0 0.2
2014-Oct-25 04:30N 47°17' W 122°26'0 0.1
2014-Oct-25 03:30N 47°17' W 122°26'0 0.1
2014-Oct-25 02:33N 47°17' W 122°26'0 0.1
2014-Oct-25 01:33N 47°17' W 122°26'0 0.0
2014-Oct-25 00:27N 47°17' W 122°26'0 0.1
2014-Oct-24 23:30N 47°17' W 122°26'0 0.1
2014-Oct-24 22:33N 47°17' W 122°26'0 0.1
2014-Oct-24 21:33N 47°17' W 122°26'0 0.0
2014-Oct-24 20:33N 47°17' W 122°26'0 0.1
2014-Oct-24 19:33N 47°17' W 122°26'0 0.0
2014-Oct-24 18:33N 47°17' W 122°26'0 0.0
2014-Oct-24 17:33N 47°17' W 122°26'0 0.0
2014-Oct-24 16:33N 47°17' W 122°26'0 0.0
2014-Oct-24 15:30N 47°17' W 122°26'0 0.0
2014-Oct-24 14:33N 47°17' W 122°26'0 0.0
2014-Oct-24 13:33N 47°17' W 122°26'0 0.1
2014-Oct-24 12:33N 47°17' W 122°26'0 0.1
2014-Oct-24 11:33N 47°17' W 122°26'0 0.1
2014-Oct-24 10:33N 47°17' W 122°26'0 0.0
2014-Oct-24 09:33N 47°17' W 122°26'0 0.2
2014-Oct-24 08:33N 47°17' W 122°26'0 0.1
2014-Oct-24 07:33N 47°17' W 122°26'0 0.1
2014-Oct-24 06:33N 47°17' W 122°26'0 0.0
2014-Oct-24 05:33N 47°17' W 122°26'0 0.1
2014-Oct-24 04:30N 47°17' W 122°26'0 0.0
2014-Oct-24 03:33N 47°17' W 122°26'0 0.1
2014-Oct-24 02:33N 47°17' W 122°26'0 0.1
2014-Oct-24 01:33N 47°17' W 122°26'0 0.1
2014-Oct-24 00:27N 47°17' W 122°26'0 0.1
2014-Oct-23 23:33N 47°17' W 122°26'0 0.0
2014-Oct-23 22:24N 47°17' W 122°26'0 0.0
2014-Oct-23 21:33N 47°17' W 122°26'0 0.1
2014-Oct-23 20:33N 47°17' W 122°26'6 5.9
2014-Oct-23 19:33N 47°22' W 122°23'1212.4
2014-Oct-23 18:33N 47°34' W 122°27'1212.1
2014-Oct-23 17:33N 47°47' W 122°27'1111.3
2014-Oct-23 16:33N 47°57' W 122°34'1110.5
2014-Oct-23 15:28N 48°07' W 122°41'1010.9
2014-Oct-23 14:33N 48°11' W 122°55'1413.5
2014-Oct-23 13:32N 48°11' W 123°15'7 7.5
2014-Oct-23 12:33N 48°11' W 123°26'8 8.2
2014-Oct-23 11:33N 48°13' W 123°38'9 9.0
2014-Oct-23 10:33N 48°13' W 123°52'7 7.3
2014-Oct-23 09:33N 48°16' W 124°02'7 7.3
2014-Oct-23 08:33N 48°19' W 124°12'7 7.5
2014-Oct-23 07:33N 48°22' W 124°22'8 7.7
2014-Oct-23 06:33N 48°25' W 124°33'9 8.6
2014-Oct-23 05:33N 48°29' W 124°45'1110.8
2014-Oct-23 04:33N 48°29' W 125°01'10 9.8
2014-Oct-23 03:33N 48°29' W 125°16'6 6.4
2014-Oct-23 02:33N 48°30' W 125°25'9 9.3
2014-Oct-23 01:33N 48°33' W 125°38'9 9.3
2014-Oct-23 00:33N 48°37' W 125°51'9 9.1
2014-Oct-22 23:34N 48°40' W 126°04'9 9.0
2014-Oct-22 22:33N 48°44' W 126°17'8 8.3
2014-Oct-22 21:33N 48°47' W 126°28'8 8.2
2014-Oct-22 20:33N 48°50' W 126°40'  

Dump ship's entire track history